• Join FlightAware (Why Join?)
  • Login
  • US Flag 
01:12AM EDT


 

Airport Tracker/Info


-or-


 

Live Flight TrackerFlight Track Log ✈ ASQ6151 ✈ 25-Aug-2013 ✈ KGSO - KORD

Flight Track Log - Related Links

Times and Time Zones

All times are in EDT time to prevent confusion due to time zone crossing. See the ASQ6151 flight status page for this flight to view local times or setup timezone preferences in your user account.

Time Position Orientation Groundspeed Altitude Reporting Facility
EDT Latitude Longitude Course Direction KTS MPH feet Rate Location/Type
04:19PM 36.2397 -79.8658 North 241 277 5,700  Level Atlanta Center
04:20PM 36.2930 -80.2859 302° West  Level FlightAware Approximate
04:20PM 36.2869 -79.9047 326° Northwest 265 305 7,700  Level Atlanta Center
04:21PM 36.3416 -80.3747 307° West  Level FlightAware Approximate
04:21PM 36.3492 -79.9581 325° Northwest 273 314 9,500  Level Atlanta Center
04:22PM 36.3933 -80.4610 307° West  Level FlightAware Approximate
04:22PM 36.3753 -80.0547 289° West 264 304 10,700  Level Atlanta Center
04:23PM 36.4417 -80.5501 302° West  Level FlightAware Approximate
04:23PM 36.4039 -80.1642 288° West 305 351 11,500  Level Atlanta Center
04:24PM 36.4369 -80.2917 288° West 336 387 12,900 1,200 Climbing Atlanta Center
04:25PM 36.4675 -80.4064 288° West 349 402 13,900 960 Climbing Atlanta Center
04:26PM 36.5022 -80.5236 290° West 355 409 14,900 960 Climbing Atlanta Center
04:27PM 36.5672 -80.6061 314° West 360 414 15,900 960 Climbing Atlanta Center
04:28PM 36.6428 -80.7011 315° West 360 414 16,900 960 Climbing Atlanta Center
04:29PM 36.7181 -80.7861 318° Northwest 360 414 17,900 780 Climbing Atlanta Center
04:30PM 36.7803 -80.8614 316° Northwest 355 409 18,500 780 Climbing Atlanta Center
04:31PM 36.8536 -80.9544 315° West 360 414 19,500 1,080 Climbing Atlanta Center
04:32PM 36.9353 -81.0525 316° Northwest 366 421 20,700 1,080 Climbing Atlanta Center
04:33PM 37.0083 -81.1406 316° Northwest 366 421 21,700 960 Climbing Atlanta Center
04:35PM 37.1472 -81.3039 317° Northwest 372 428 23,500 840 Climbing Indianapolis Center
04:37PM 37.3042 -81.4944 316° Northwest 379 436 25,200 780 Climbing Indianapolis Center
04:38PM 37.3856 -81.5950 316° Northwest 376 433 26,100 840 Climbing Indianapolis Center
04:39PM 37.4622 -81.6878 316° Northwest 381 438 27,000 780 Climbing Indianapolis Center
04:40PM 37.5378 -81.7828 315° West 382 440 27,800 720 Climbing Indianapolis Center
04:41PM 37.6125 -81.8756 315° West 380 437 28,600 720 Climbing Indianapolis Center
04:42PM 37.6883 -81.9694 316° Northwest 381 438 29,400 840 Climbing Indianapolis Center
04:43PM 37.7769 -82.0800 315° West 383 441 30,400 840 Climbing Indianapolis Center
04:44PM 37.8533 -82.1750 316° Northwest 385 443 31,200 780 Climbing Indianapolis Center
04:45PM 37.9297 -82.2725 315° West 389 448 32,100 780 Climbing Indianapolis Center
04:46PM 38.0061 -82.3697 315° West 390 449 32,900 720 Climbing Indianapolis Center
04:47PM 38.0839 -82.4664 316° Northwest 391 450 33,700 480 Climbing Indianapolis Center
04:48PM 38.1747 -82.5819 315° West 397 457 34,000 120 Climbing Indianapolis Center
04:49PM 38.2578 -82.6875 315° West 416 479 34,000  Level Indianapolis Center
04:51PM 38.4178 -82.9256 311° West 455 524 34,000  Level Indianapolis Center
04:52PM 38.4856 -83.0600 303° West 452 520 34,000  Level Indianapolis Center
04:53PM 38.5642 -83.2144 303° West 448 516 34,000  Level Indianapolis Center
04:54PM 38.6311 -83.3469 303° West 445 512 34,000  Level Indianapolis Center
04:55PM 38.6958 -83.4742 303° West 443 510 34,000  Level Indianapolis Center
04:56PM 38.7464 -83.6181 294° West 446 513 34,000  Level Indianapolis Center
04:57PM 38.7839 -83.7714 287° West 451 519 34,000  Level Indianapolis Center
04:58PM 38.8225 -83.9236 288° West 448 516 34,000  Level Indianapolis Center
04:59PM 38.8675 -84.1078 287° West 451 519 34,000 -120 Level Indianapolis Center
05:00PM 38.9064 -84.2606 288° West 450 518 33,800 -540 Descending Indianapolis Center
05:01PM 38.9461 -84.4147 288° West 453 521 33,000 -420 Descending Indianapolis Center
05:02PM 38.9875 -84.5689 289° West 454 522 33,000  Level Indianapolis Center
05:03PM 39.0286 -84.7247 289° West 459 528 33,000 -480 Level Indianapolis Center
05:05PM 39.0694 -84.8842 288° West 450 518 32,100 -900 Descending Indianapolis Center
05:06PM 39.1547 -84.9931 315° West 442 509 31,200 -1,020 Descending Indianapolis Center
05:07PM 39.2675 -85.0483 339° North 437 503 30,100 -1,080 Descending Indianapolis Center
05:08PM 39.4031 -85.1167 339° North 436 502 29,000 -1,020 Descending Indianapolis Center
05:09PM 39.5183 -85.1758 338° Northwest 446 513 28,000 -540 Descending Indianapolis Center
05:10PM 39.6342 -85.2356 338° Northwest 450 518 28,000  Level Indianapolis Center
05:11PM 39.7492 -85.2931 339° North 448 516 28,000  Level Indianapolis Center
05:12PM 39.8631 -85.3522 338° Northwest 445 512 28,000 -420 Level Indianapolis Center
05:13PM 39.9778 -85.4106 339° North 445 512 27,200 -1,020 Descending Indianapolis Center
05:14PM 40.1206 -85.4850 338° Northwest 458 527 26,000 -1,080 Descending Indianapolis Center
05:15PM 40.2369 -85.5458 338° Northwest 457 526 25,000 -960 Descending Indianapolis Center
05:16PM 40.3511 -85.6044 339° North 447 514 24,100 -600 Descending Indianapolis Center
05:17PM 40.4414 -85.6486 340° North 441 507 24,000 -180 Descending Chicago Center
05:18PM 40.5558 -85.6925 344° North 432 497 23,800 -600 Descending Chicago Center
05:19PM 40.6686 -85.7447 341° North 432 497 22,800 -1,020 Descending Chicago Center
05:20PM 40.7897 -85.8019 340° North 416 479 21,700 -900 Descending Chicago Center
05:21PM 40.8975 -85.8514 341° North 410 472 21,000 -360 Descending Chicago Center
05:22PM 41.0053 -85.9036 340° North 411 473 21,000  Level Chicago Center
05:23PM 41.1122 -85.9550 340° North 409 471 21,000  Level Chicago Center
05:24PM 41.2194 -86.0067 340° North 409 471 21,000  Level Chicago Center
05:25PM 41.2969 -86.1117 315° West 400 460 21,000  Level Chicago Center
05:26PM 41.3622 -86.2333 306° West 402 463 21,000 -900 Level Chicago Center
05:27PM 41.4414 -86.3833 305° West 412 474 19,200 -2,040 Descending Chicago Center
05:28PM 41.5039 -86.5017 305° West 395 455 16,900 -2,400 Descending Chicago Center
05:29PM 41.5633 -86.6142 305° West 375 432 14,300 -2,400 Descending Chicago Center
05:30PM 41.6214 -86.7264 305° West 364 419 11,900 -1,080 Descending Chicago Center
05:31PM 41.7019 -86.7981 326° Northwest 358 412 12,100 60 Climbing Chicago Center
05:32PM 41.8147 -86.8178 353° North 342 394 12,100  Level Chicago Center
05:33PM 41.8894 -86.8572 339° North 304 350 12,100 -540 Level Chicago Center
05:34PM 41.9275 -86.9531 298° West 293 337 11,000 -1,200 Descending Chicago Center
05:35PM 41.9628 -87.0439 298° West 282 325 9,700 -1,020 Descending Chicago Center
05:36PM 41.9892 -87.1275 293° West 257 296 8,900 -1,020 Descending Chicago Center
05:37PM 41.9806 -87.2325 264° West 240 276 7,700 -960 Descending Chicago Center
05:38PM 41.9850 -87.3200 274° West 237 273 7,000 -360 Descending Chicago Center
05:39PM 41.9825 -87.4022 268° West 225 259 7,000 -300 Level Chicago Center
05:40PM 41.9831 -87.4844 271° West 223 257 6,500 -900 Descending Chicago Center
05:41PM 41.9833 -87.5672 270° West 223 257 5,200 -1,260 Descending Chicago Center
05:42PM 41.9833 -87.6333 270° West 200 230 4,300 -1,140 Descending Chicago TRACON
05:43PM 41.9833 -87.7000 270° West 190 219 3,300 -1,020 Descending Chicago TRACON
05:44PM 41.9833 -87.7667 270° West 177 204 2,300 -900 Descending Chicago TRACON
05:45PM 41.9833 -87.8167 270° West 131 151 1,600 -720 Descending Chicago TRACON
05:46PM 41.9833 -87.8667 270° West 131 151 900 -720 Descending Chicago TRACON